sensor_id;sensor_type;location;lat;lon;timestamp;P1;P2;P0
34240;PMS7003;20503;50.200;19.508;2023-05-18T00:02:07;21;14;9
34240;PMS7003;20503;50.200;19.508;2023-05-18T00:07:15;20;17;10
34240;PMS7003;20503;50.200;19.508;2023-05-18T00:12:23;22;16;10
34240;PMS7003;20503;50.200;19.508;2023-05-18T00:17:30;21;14;9
34240;PMS7003;20503;50.200;19.508;2023-05-18T00:22:39;22;17;9
34240;PMS7003;20503;50.200;19.508;2023-05-18T00:27:47;16;12;9
34240;PMS7003;20503;50.200;19.508;2023-05-18T00:32:55;15;13;8
34240;PMS7003;20503;50.200;19.508;2023-05-18T00:38:02;16;13;9
34240;PMS7003;20503;50.200;19.508;2023-05-18T00:43:10;11;10;7
34240;PMS7003;20503;50.200;19.508;2023-05-18T00:48:18;18;14;8
34240;PMS7003;20503;50.200;19.508;2023-05-18T00:53:25;13;12;8
34240;PMS7003;20503;50.200;19.508;2023-05-18T00:58:33;12;10;7
34240;PMS7003;20503;50.200;19.508;2023-05-18T01:03:41;10;10;8
34240;PMS7003;20503;50.200;19.508;2023-05-18T01:08:48;11;9;7
34240;PMS7003;20503;50.200;19.508;2023-05-18T01:19:18;12;9;7
34240;PMS7003;20503;50.200;19.508;2023-05-18T01:24:27;14;9;6
34240;PMS7003;20503;50.200;19.508;2023-05-18T01:29:35;9;8;6
34240;PMS7003;20503;50.200;19.508;2023-05-18T01:34:38;14;10;5
34240;PMS7003;20503;50.200;19.508;2023-05-18T01:39:40;8;7;5
34240;PMS7003;20503;50.200;19.508;2023-05-18T01:44:45;9;9;4
34240;PMS7003;20503;50.200;19.508;2023-05-18T01:49:55;10;7;5
34240;PMS7003;20503;50.200;19.508;2023-05-18T01:55:03;5;5;4
34240;PMS7003;20503;50.200;19.508;2023-05-18T02:00:07;7;7;4
34240;PMS7003;20503;50.200;19.508;2023-05-18T02:05:14;8;7;5
34240;PMS7003;20503;50.200;19.508;2023-05-18T02:10:21;7;4;4
34240;PMS7003;20503;50.200;19.508;2023-05-18T02:15:29;10;6;4
34240;PMS7003;20503;50.200;19.508;2023-05-18T02:20:37;8;6;4
34240;PMS7003;20503;50.200;19.508;2023-05-18T02:25:44;8;6;4
34240;PMS7003;20503;50.200;19.508;2023-05-18T02:30:52;6;5;4
34240;PMS7003;20503;50.200;19.508;2023-05-18T02:36:00;8;6;4
34240;PMS7003;20503;50.200;19.508;2023-05-18T02:41:07;7;6;4
34240;PMS7003;20503;50.200;19.508;2023-05-18T02:46:14;9;6;4
34240;PMS7003;20503;50.200;19.508;2023-05-18T02:51:22;8;6;4
34240;PMS7003;20503;50.200;19.508;2023-05-18T02:56:30;7;7;4
34240;PMS7003;20503;50.200;19.508;2023-05-18T03:01:38;8;7;5
34240;PMS7003;20503;50.200;19.508;2023-05-18T03:06:46;9;8;5
34240;PMS7003;20503;50.200;19.508;2023-05-18T03:11:54;9;8;6
34240;PMS7003;20503;50.200;19.508;2023-05-18T03:17:02;10;8;5
34240;PMS7003;20503;50.200;19.508;2023-05-18T03:22:09;9;6;4
34240;PMS7003;20503;50.200;19.508;2023-05-18T03:27:17;11;8;6
34240;PMS7003;20503;50.200;19.508;2023-05-18T03:32:25;11;7;5
34240;PMS7003;20503;50.200;19.508;2023-05-18T03:37:33;9;8;6
34240;PMS7003;20503;50.200;19.508;2023-05-18T03:42:41;12;8;6
34240;PMS7003;20503;50.200;19.508;2023-05-18T03:47:49;9;8;4
34240;PMS7003;20503;50.200;19.508;2023-05-18T03:52:56;9;8;4
34240;PMS7003;20503;50.200;19.508;2023-05-18T03:58:04;7;6;4
34240;PMS7003;20503;50.200;19.508;2023-05-18T04:03:12;8;8;5
34240;PMS7003;20503;50.200;19.508;2023-05-18T04:08:20;10;5;4
34240;PMS7003;20503;50.200;19.508;2023-05-18T04:13:28;11;6;4
34240;PMS7003;20503;50.200;19.508;2023-05-18T04:18:36;9;8;4
34240;PMS7003;20503;50.200;19.508;2023-05-18T04:23:44;9;8;6
34240;PMS7003;20503;50.200;19.508;2023-05-18T04:28:52;10;9;6
34240;PMS7003;20503;50.200;19.508;2023-05-18T04:34:00;9;7;5
34240;PMS7003;20503;50.200;19.508;2023-05-18T04:39:08;9;6;4
34240;PMS7003;20503;50.200;19.508;2023-05-18T04:44:16;11;8;5
34240;PMS7003;20503;50.200;19.508;2023-05-18T04:49:23;7;7;4
34240;PMS7003;20503;50.200;19.508;2023-05-18T04:54:30;10;8;5
34240;PMS7003;20503;50.200;19.508;2023-05-18T04:59:39;10;8;6
34240;PMS7003;20503;50.200;19.508;2023-05-18T05:04:46;12;12;9
34240;PMS7003;20503;50.200;19.508;2023-05-18T05:09:53;8;8;5
34240;PMS7003;20503;50.200;19.508;2023-05-18T05:15:01;8;6;4
34240;PMS7003;20503;50.200;19.508;2023-05-18T05:20:08;7;5;2
34240;PMS7003;20503;50.200;19.508;2023-05-18T05:25:16;8;5;4
34240;PMS7003;20503;50.200;19.508;2023-05-18T05:30:24;8;4;4
34240;PMS7003;20503;50.200;19.508;2023-05-18T05:35:31;5;5;4
34240;PMS7003;20503;50.200;19.508;2023-05-18T05:40:39;9;6;4
34240;PMS7003;20503;50.200;19.508;2023-05-18T05:45:46;8;6;4
34240;PMS7003;20503;50.200;19.508;2023-05-18T05:50:54;8;5;4
34240;PMS7003;20503;50.200;19.508;2023-05-18T06:01:09;6;4;4
34240;PMS7003;20503;50.200;19.508;2023-05-18T06:06:17;5;5;4
34240;PMS7003;20503;50.200;19.508;2023-05-18T06:11:25;12;9;6
34240;PMS7003;20503;50.200;19.508;2023-05-18T06:16:32;11;8;5
34240;PMS7003;20503;50.200;19.508;2023-05-18T06:21:40;12;8;4
34240;PMS7003;20503;50.200;19.508;2023-05-18T06:26:48;8;6;4
34240;PMS7003;20503;50.200;19.508;2023-05-18T06:31:56;10;8;5
34240;PMS7003;20503;50.200;19.508;2023-05-18T06:37:03;6;6;4
34240;PMS7003;20503;50.200;19.508;2023-05-18T06:42:10;7;6;4
34240;PMS7003;20503;50.200;19.508;2023-05-18T06:47:18;11;4;2
34240;PMS7003;20503;50.200;19.508;2023-05-18T06:52:26;5;4;2
34240;PMS7003;20503;50.200;19.508;2023-05-18T06:57:34;5;4;4
34240;PMS7003;20503;50.200;19.508;2023-05-18T07:02:41;5;4;2
34240;PMS7003;20503;50.200;19.508;2023-05-18T07:07:48;4;3;2
34240;PMS7003;20503;50.200;19.508;2023-05-18T07:12:56;2;2;2
34240;PMS7003;20503;50.200;19.508;2023-05-18T07:18:03;4;3;2
34240;PMS7003;20503;50.200;19.508;2023-05-18T07:23:11;7;4;3
34240;PMS7003;20503;50.200;19.508;2023-05-18T07:28:18;5;3;2
34240;PMS7003;20503;50.200;19.508;2023-05-18T07:33:26;4;2;2
34240;PMS7003;20503;50.200;19.508;2023-05-18T07:38:33;4;2;1
34240;PMS7003;20503;50.200;19.508;2023-05-18T07:43:41;2;2;2
34240;PMS7003;20503;50.200;19.508;2023-05-18T07:48:48;2;2;2
34240;PMS7003;20503;50.200;19.508;2023-05-18T07:53:55;3;3;2
34240;PMS7003;20503;50.200;19.508;2023-05-18T07:59:03;4;2;2
34240;PMS7003;20503;50.200;19.508;2023-05-18T08:04:10;2;1;1
34240;PMS7003;20503;50.200;19.508;2023-05-18T08:09:18;1;1;1
34240;PMS7003;20503;50.200;19.508;2023-05-18T08:14:25;3;3;2
34240;PMS7003;20503;50.200;19.508;2023-05-18T08:19:32;7;5;4
34240;PMS7003;20503;50.200;19.508;2023-05-18T08:24:40;4;3;2
34240;PMS7003;20503;50.200;19.508;2023-05-18T08:29:48;5;3;2
34240;PMS7003;20503;50.200;19.508;2023-05-18T08:34:55;8;4;2
34240;PMS7003;20503;50.200;19.508;2023-05-18T08:40:03;3;2;2
34240;PMS7003;20503;50.200;19.508;2023-05-18T08:45:10;6;2;2
34240;PMS7003;20503;50.200;19.508;2023-05-18T08:50:19;2;1;1
34240;PMS7003;20503;50.200;19.508;2023-05-18T08:55:24;2;1;1
34240;PMS7003;20503;50.200;19.508;2023-05-18T09:00:32;1;1;0
34240;PMS7003;20503;50.200;19.508;2023-05-18T09:05:40;2;0;0
34240;PMS7003;20503;50.200;19.508;2023-05-18T09:10:46;4;1;0
34240;PMS7003;20503;50.200;19.508;2023-05-18T09:15:54;2;1;1
34240;PMS7003;20503;50.200;19.508;2023-05-18T09:21:01;2;2;2
34240;PMS7003;20503;50.200;19.508;2023-05-18T09:26:09;1;1;0
34240;PMS7003;20503;50.200;19.508;2023-05-18T09:31:16;2;0;0
34240;PMS7003;20503;50.200;19.508;2023-05-18T09:36:24;2;0;0
34240;PMS7003;20503;50.200;19.508;2023-05-18T09:41:30;2;1;0
34240;PMS7003;20503;50.200;19.508;2023-05-18T09:46:38;1;1;1
34240;PMS7003;20503;50.200;19.508;2023-05-18T09:51:45;0;0;0
34240;PMS7003;20503;50.200;19.508;2023-05-18T09:56:53;2;1;0
34240;PMS7003;20503;50.200;19.508;2023-05-18T10:02:00;3;2;1
34240;PMS7003;20503;50.200;19.508;2023-05-18T10:07:11;3;2;2
34240;PMS7003;20503;50.200;19.508;2023-05-18T10:12:15;1;0;0
34240;PMS7003;20503;50.200;19.508;2023-05-18T10:17:22;3;2;2
34240;PMS7003;20503;50.200;19.508;2023-05-18T10:22:30;5;2;1
34240;PMS7003;20503;50.200;19.508;2023-05-18T10:27:38;2;2;1
34240;PMS7003;20503;50.200;19.508;2023-05-18T10:32:45;9;6;3
34240;PMS7003;20503;50.200;19.508;2023-05-18T10:37:54;7;4;2
34240;PMS7003;20503;50.200;19.508;2023-05-18T10:43:02;2;2;2
34240;PMS7003;20503;50.200;19.508;2023-05-18T10:48:08;1;1;0
34240;PMS7003;20503;50.200;19.508;2023-05-18T10:53:16;2;2;2
34240;PMS7003;20503;50.200;19.508;2023-05-18T10:58:26;3;2;2
34240;PMS7003;20503;50.200;19.508;2023-05-18T11:03:31;6;4;2
34240;PMS7003;20503;50.200;19.508;2023-05-18T11:08:56;11;11;6
34240;PMS7003;20503;50.200;19.508;2023-05-18T11:13:48;6;2;2
34240;PMS7003;20503;50.200;19.508;2023-05-18T11:18:55;7;6;3
34240;PMS7003;20503;50.200;19.508;2023-05-18T11:29:19;8;5;3
34240;PMS7003;20503;50.200;19.508;2023-05-18T11:39:44;2;2;2
34240;PMS7003;20503;50.200;19.508;2023-05-18T11:44:54;2;2;1
34240;PMS7003;20503;50.200;19.508;2023-05-18T11:49:56;2;2;0
34240;PMS7003;20503;50.200;19.508;2023-05-18T11:54:59;1;1;0
34240;PMS7003;20503;50.200;19.508;2023-05-18T12:00:03;0;0;0
34240;PMS7003;20503;50.200;19.508;2023-05-18T12:05:12;1;1;0
34240;PMS7003;20503;50.200;19.508;2023-05-18T12:10:14;1;1;1
34240;PMS7003;20503;50.200;19.508;2023-05-18T12:15:19;2;1;1
34240;PMS7003;20503;50.200;19.508;2023-05-18T12:20:22;2;2;2
34240;PMS7003;20503;50.200;19.508;2023-05-18T12:25:29;2;2;1
34240;PMS7003;20503;50.200;19.508;2023-05-18T12:30:36;1;1;1
34240;PMS7003;20503;50.200;19.508;2023-05-18T12:35:44;1;1;0
34240;PMS7003;20503;50.200;19.508;2023-05-18T12:40:51;2;2;2
34240;PMS7003;20503;50.200;19.508;2023-05-18T12:46:02;3;2;2
34240;PMS7003;20503;50.200;19.508;2023-05-18T12:51:06;4;2;1
34240;PMS7003;20503;50.200;19.508;2023-05-18T12:56:19;5;2;2
34240;PMS7003;20503;50.200;19.508;2023-05-18T13:01:22;6;6;4
34240;PMS7003;20503;50.200;19.508;2023-05-18T13:06:29;3;2;2
34240;PMS7003;20503;50.200;19.508;2023-05-18T13:11:37;5;3;2
34240;PMS7003;20503;50.200;19.508;2023-05-18T13:16:44;4;1;1
34240;PMS7003;20503;50.200;19.508;2023-05-18T13:21:54;2;2;1
34240;PMS7003;20503;50.200;19.508;2023-05-18T13:26:58;4;2;1
34240;PMS7003;20503;50.200;19.508;2023-05-18T13:32:06;3;1;1
34240;PMS7003;20503;50.200;19.508;2023-05-18T13:37:13;2;1;0
34240;PMS7003;20503;50.200;19.508;2023-05-18T13:42:20;2;2;2
34240;PMS7003;20503;50.200;19.508;2023-05-18T13:47:28;3;2;1
34240;PMS7003;20503;50.200;19.508;2023-05-18T13:52:35;2;2;2
34240;PMS7003;20503;50.200;19.508;2023-05-18T13:57:43;2;2;1
34240;PMS7003;20503;50.200;19.508;2023-05-18T14:02:50;5;5;3
34240;PMS7003;20503;50.200;19.508;2023-05-18T14:07:57;2;1;1
34240;PMS7003;20503;50.200;19.508;2023-05-18T14:13:05;0;0;0
34240;PMS7003;20503;50.200;19.508;2023-05-18T14:18:12;1;1;0
34240;PMS7003;20503;50.200;19.508;2023-05-18T14:23:19;2;2;2
34240;PMS7003;20503;50.200;19.508;2023-05-18T14:28:27;1;1;1
34240;PMS7003;20503;50.200;19.508;2023-05-18T14:33:34;2;2;1
34240;PMS7003;20503;50.200;19.508;2023-05-18T14:38:42;2;2;1
34240;PMS7003;20503;50.200;19.508;2023-05-18T14:43:49;1;1;0
34240;PMS7003;20503;50.200;19.508;2023-05-18T14:48:57;2;2;2
34240;PMS7003;20503;50.200;19.508;2023-05-18T14:54:04;6;6;3
34240;PMS7003;20503;50.200;19.508;2023-05-18T14:59:11;5;5;3
34240;PMS7003;20503;50.200;19.508;2023-05-18T15:04:19;9;7;4
34240;PMS7003;20503;50.200;19.508;2023-05-18T15:09:27;10;8;6
34240;PMS7003;20503;50.200;19.508;2023-05-18T15:14:35;5;5;2
34240;PMS7003;20503;50.200;19.508;2023-05-18T15:19:42;7;6;4
34240;PMS7003;20503;50.200;19.508;2023-05-18T15:24:50;8;6;4
34240;PMS7003;20503;50.200;19.508;2023-05-18T15:29:57;6;3;2
34240;PMS7003;20503;50.200;19.508;2023-05-18T15:35:05;4;3;2
34240;PMS7003;20503;50.200;19.508;2023-05-18T15:40:12;2;2;2
34240;PMS7003;20503;50.200;19.508;2023-05-18T15:45:19;4;4;2
34240;PMS7003;20503;50.200;19.508;2023-05-18T15:50:27;7;3;2
34240;PMS7003;20503;50.200;19.508;2023-05-18T15:55:34;2;2;2
34240;PMS7003;20503;50.200;19.508;2023-05-18T16:00:42;6;3;2
34240;PMS7003;20503;50.200;19.508;2023-05-18T16:05:50;13;8;5
34240;PMS7003;20503;50.200;19.508;2023-05-18T16:10:57;12;9;6
34240;PMS7003;20503;50.200;19.508;2023-05-18T16:16:05;8;4;3
34240;PMS7003;20503;50.200;19.508;2023-05-18T16:21:13;5;4;3
34240;PMS7003;20503;50.200;19.508;2023-05-18T16:26:20;10;6;4
34240;PMS7003;20503;50.200;19.508;2023-05-18T16:31:27;10;7;5
34240;PMS7003;20503;50.200;19.508;2023-05-18T16:36:35;8;6;5
34240;PMS7003;20503;50.200;19.508;2023-05-18T16:41:43;11;6;4
34240;PMS7003;20503;50.200;19.508;2023-05-18T16:46:50;7;5;3
34240;PMS7003;20503;50.200;19.508;2023-05-18T16:56:25;5;5;3
34240;PMS7003;20503;50.200;19.508;2023-05-18T17:01:32;9;5;4
34240;PMS7003;20503;50.200;19.508;2023-05-18T17:06:40;10;7;5
34240;PMS7003;20503;50.200;19.508;2023-05-18T17:11:48;54;38;22
34240;PMS7003;20503;50.200;19.508;2023-05-18T17:16:56;29;21;12
34240;PMS7003;20503;50.200;19.508;2023-05-18T17:22:04;9;8;4
34240;PMS7003;20503;50.200;19.508;2023-05-18T17:27:12;12;6;4
34240;PMS7003;20503;50.200;19.508;2023-05-18T17:32:20;42;30;18
34240;PMS7003;20503;50.200;19.508;2023-05-18T17:37:28;12;8;5
34240;PMS7003;20503;50.200;19.508;2023-05-18T17:42:35;10;7;5
34240;PMS7003;20503;50.200;19.508;2023-05-18T17:47:43;12;6;4
34240;PMS7003;20503;50.200;19.508;2023-05-18T17:52:50;13;9;6
34240;PMS7003;20503;50.200;19.508;2023-05-18T17:57:58;8;6;4
34240;PMS7003;20503;50.200;19.508;2023-05-18T18:03:06;9;7;5
34240;PMS7003;20503;50.200;19.508;2023-05-18T18:08:13;12;12;7
34240;PMS7003;20503;50.200;19.508;2023-05-18T18:13:21;17;13;8
34240;PMS7003;20503;50.200;19.508;2023-05-18T18:18:29;12;10;7
34240;PMS7003;20503;50.200;19.508;2023-05-18T18:23:37;15;11;7
34240;PMS7003;20503;50.200;19.508;2023-05-18T18:28:44;11;10;7
34240;PMS7003;20503;50.200;19.508;2023-05-18T18:33:52;14;12;6
34240;PMS7003;20503;50.200;19.508;2023-05-18T18:39:00;11;8;6
34240;PMS7003;20503;50.200;19.508;2023-05-18T18:44:08;15;10;7
34240;PMS7003;20503;50.200;19.508;2023-05-18T18:49:16;12;11;8
34240;PMS7003;20503;50.200;19.508;2023-05-18T18:54:24;18;11;7
34240;PMS7003;20503;50.200;19.508;2023-05-18T18:59:31;8;7;5
34240;PMS7003;20503;50.200;19.508;2023-05-18T19:04:39;6;4;4
34240;PMS7003;20503;50.200;19.508;2023-05-18T19:09:47;7;4;3
34240;PMS7003;20503;50.200;19.508;2023-05-18T19:14:55;13;8;6
34240;PMS7003;20503;50.200;19.508;2023-05-18T19:20:03;28;19;10
34240;PMS7003;20503;50.200;19.508;2023-05-18T19:25:10;38;29;16
34240;PMS7003;20503;50.200;19.508;2023-05-18T19:30:18;21;14;10
34240;PMS7003;20503;50.200;19.508;2023-05-18T19:35:25;24;19;12
34240;PMS7003;20503;50.200;19.508;2023-05-18T19:40:33;36;26;15
34240;PMS7003;20503;50.200;19.508;2023-05-18T19:45:42;15;12;8
34240;PMS7003;20503;50.200;19.508;2023-05-18T19:50:49;14;12;8
34240;PMS7003;20503;50.200;19.508;2023-05-18T19:55:57;8;8;6
34240;PMS7003;20503;50.200;19.508;2023-05-18T20:01:04;13;8;7
34240;PMS7003;20503;50.200;19.508;2023-05-18T20:06:12;12;10;7
34240;PMS7003;20503;50.200;19.508;2023-05-18T20:11:19;11;9;6
34240;PMS7003;20503;50.200;19.508;2023-05-18T20:16:27;9;8;5
34240;PMS7003;20503;50.200;19.508;2023-05-18T20:21:35;10;8;5
34240;PMS7003;20503;50.200;19.508;2023-05-18T20:26:43;7;6;4
34240;PMS7003;20503;50.200;19.508;2023-05-18T20:31:50;8;7;4
34240;PMS7003;20503;50.200;19.508;2023-05-18T20:36:58;7;6;4
34240;PMS7003;20503;50.200;19.508;2023-05-18T20:42:06;9;7;4
34240;PMS7003;20503;50.200;19.508;2023-05-18T20:47:14;15;10;8
34240;PMS7003;20503;50.200;19.508;2023-05-18T20:52:21;12;8;6
34240;PMS7003;20503;50.200;19.508;2023-05-18T20:57:29;12;8;6
34240;PMS7003;20503;50.200;19.508;2023-05-18T21:02:37;7;6;4
34240;PMS7003;20503;50.200;19.508;2023-05-18T21:07:45;10;9;6
34240;PMS7003;20503;50.200;19.508;2023-05-18T21:12:52;13;9;6
34240;PMS7003;20503;50.200;19.508;2023-05-18T21:18:01;9;7;5
34240;PMS7003;20503;50.200;19.508;2023-05-18T21:23:08;10;8;5
34240;PMS7003;20503;50.200;19.508;2023-05-18T21:28:15;9;7;5
34240;PMS7003;20503;50.200;19.508;2023-05-18T21:33:23;17;11;8
34240;PMS7003;20503;50.200;19.508;2023-05-18T21:38:31;8;6;4
34240;PMS7003;20503;50.200;19.508;2023-05-18T21:43:38;7;5;4
34240;PMS7003;20503;50.200;19.508;2023-05-18T21:48:46;8;7;4
34240;PMS7003;20503;50.200;19.508;2023-05-18T21:53:53;8;4;4
34240;PMS7003;20503;50.200;19.508;2023-05-18T21:59:01;9;7;5
34240;PMS7003;20503;50.200;19.508;2023-05-18T22:04:09;6;6;4
34240;PMS7003;20503;50.200;19.508;2023-05-18T22:09:17;8;6;4
34240;PMS7003;20503;50.200;19.508;2023-05-18T22:14:24;4;4;4
34240;PMS7003;20503;50.200;19.508;2023-05-18T22:19:32;7;7;4
34240;PMS7003;20503;50.200;19.508;2023-05-18T22:24:40;8;5;4
34240;PMS7003;20503;50.200;19.508;2023-05-18T22:29:47;7;4;4
34240;PMS7003;20503;50.200;19.508;2023-05-18T22:34:55;8;7;5
34240;PMS7003;20503;50.200;19.508;2023-05-18T22:40:03;8;7;5
34240;PMS7003;20503;50.200;19.508;2023-05-18T22:45:11;10;6;5
34240;PMS7003;20503;50.200;19.508;2023-05-18T22:50:18;4;4;4
34240;PMS7003;20503;50.200;19.508;2023-05-18T22:55:25;8;4;4
34240;PMS7003;20503;50.200;19.508;2023-05-18T23:00:33;8;7;4
34240;PMS7003;20503;50.200;19.508;2023-05-18T23:05:41;6;6;4
34240;PMS7003;20503;50.200;19.508;2023-05-18T23:10:49;10;7;4
34240;PMS7003;20503;50.200;19.508;2023-05-18T23:15:57;6;5;4
34240;PMS7003;20503;50.200;19.508;2023-05-18T23:21:04;7;5;4
34240;PMS7003;20503;50.200;19.508;2023-05-18T23:26:12;6;5;4
34240;PMS7003;20503;50.200;19.508;2023-05-18T23:31:19;6;5;4
34240;PMS7003;20503;50.200;19.508;2023-05-18T23:36:29;5;4;4
34240;PMS7003;20503;50.200;19.508;2023-05-18T23:41:35;8;7;4
34240;PMS7003;20503;50.200;19.508;2023-05-18T23:46:43;5;5;4
34240;PMS7003;20503;50.200;19.508;2023-05-18T23:51:51;4;4;4
34240;PMS7003;20503;50.200;19.508;2023-05-18T23:56:58;4;4;4
